Andrews, TX

3:25 PM CST on December 06, 2019 (GMT -0600)
Andrews

Weather History for KE11 - October, 2019

Change the Weather History Date:

Friday, October 11, 2019

  Actual Average (KMAF) Record (KMAF)
Temperature  
Mean Temperature 46 °F -  
Max Temperature 58 °F 76 °F 94 °F (1979)
Min Temperature 35 °F 52 °F 42 °F (2000)
Degree Days  
Heating Degree Days 18    
Moisture  
Dew Point 22 °F    
Average Humidity 41    
Maximum Humidity 61    
Minimum Humidity 22    
Precipitation  
Precipitation 0.00 in - - ()
Sea Level Pressure  
Sea Level Pressure 30.31 in    
Wind  
Wind Speed 14 mph ()    
Max Wind Speed 23 mph    
Max Gust Speed 34 mph    
Visibility 10.0 miles    
Events      
Averages and records for this station are not official NWS values.
T = Trace of Precipitation, MM = Missing Value Source: Averaged Metar Reports

Daily Weather History Graph

Daily Weather History Graph

Search for Another Location

Airport or City:

Astronomy

Oct. 11, 2019 Rise Set
Actual Time 7:50 AM CDT 7:22 PM CDT
Civil Twilight 7:26 AM CDT 7:47 PM CDT
Nautical Twilight 6:57 AM CDT 8:15 PM CDT
Astronomical Twilight 6:29 AM CDT 8:43 PM CDT
Moon 6:42 PM CDT (10/11) 5:45 AM CDT (10/11)
Length of Visible Light 12h 20m
Length of Day
11h 31m
Waxing Gibbous, 96% of the Moon is Illuminated
Oct 11
Waxing Gibbous
Oct 13
Full
Oct 21
Last Quarter
Oct 27
New
Nov 4
First Quarter

Hourly Weather History & Observations

Time (CDT) Temp. Windchill Dew Point Humidity Pressure Visibility Wind Dir Wind Speed Gust Speed Precip Events Conditions
12:15 AM 50.7 °F - 34.2 °F 53% 30.09 in 10.0 mi NNE 19.6 mph 27.6 mph N/A   Clear
12:35 AM 49.3 °F - 32.5 °F 53% 30.10 in 10.0 mi NNE 17.3 mph 32.2 mph N/A   Clear
12:55 AM 47.8 °F - 31.5 °F 53% 30.11 in 10.0 mi NE 23.0 mph 31.1 mph N/A   Clear
1:15 AM 46.6 °F - 31.1 °F 55% 30.12 in 10.0 mi NNE 20.7 mph 34.5 mph N/A   Clear
1:35 AM 44.8 °F 36.6 °F 28.6 °F 53% 30.12 in 10.0 mi NNE 20.7 mph 29.9 mph N/A   Clear
1:55 AM 43.7 °F 34.7 °F 27.5 °F 53% 30.14 in 10.0 mi NNE 23.0 mph 29.9 mph N/A   Clear
2:15 AM 42.3 °F 32.8 °F 25.9 °F 52% 30.15 in 10.0 mi NNE 23.0 mph 29.9 mph N/A   Clear
2:35 AM 41.2 °F 32.1 °F 25.3 °F 53% 30.17 in 10.0 mi NNE 19.6 mph 25.3 mph N/A   Clear
2:55 AM 40.8 °F 30.9 °F 24.6 °F 53% 30.19 in 10.0 mi NNE 23.0 mph 31.1 mph N/A   Clear
3:15 AM 40.5 °F 32.1 °F 24.4 °F 53% 30.21 in 10.0 mi NNE 16.1 mph 26.5 mph N/A   Clear
3:35 AM 39.9 °F 30.5 °F 23.9 °F 53% 30.22 in 10.0 mi North 19.6 mph 25.3 mph N/A   Clear
3:55 AM 39.4 °F 30.4 °F 23.4 °F 53% 30.23 in 10.0 mi NNE 17.3 mph 26.5 mph N/A   Clear
4:15 AM 38.8 °F 29.1 °F 23.2 °F 53% 30.24 in 10.0 mi NNE 19.6 mph 24.2 mph N/A   Clear
4:35 AM 38.3 °F 28.4 °F 23.0 °F 54% 30.25 in 10.0 mi NNE 19.6 mph 23.0 mph N/A   Clear
4:55 AM 38.3 °F 27.8 °F 23.0 °F 54% 30.26 in 10.0 mi NNE 21.9 mph 28.8 mph N/A   Clear
5:15 AM 37.6 °F 28.8 °F 23.4 °F 57% 30.27 in 10.0 mi NNE 15.0 mph 23.0 mph N/A   Clear
5:35 AM 37.4 °F 27.8 °F 23.0 °F 56% 30.28 in 10.0 mi NNE 17.3 mph 23.0 mph N/A   Clear
6:15 AM 36.7 °F 26.9 °F 23.4 °F 59% 30.30 in 10.0 mi NNE 17.3 mph 21.9 mph N/A   Clear
6:35 AM 36.5 °F 27.4 °F 23.0 °F 58% 30.31 in 10.0 mi North 15.0 mph 21.9 mph N/A   Clear
6:55 AM 36.0 °F 28.0 °F 23.5 °F 61% 30.32 in 10.0 mi North 11.5 mph - N/A   Clear
7:15 AM 35.8 °F 26.5 °F 23.5 °F 61% 30.33 in 10.0 mi North 15.0 mph 19.6 mph N/A   Clear
7:35 AM 35.6 °F 26.2 °F 23.0 °F 60% 30.34 in 10.0 mi North 15.0 mph 18.4 mph N/A   Clear
7:55 AM 35.6 °F 27.1 °F 22.6 °F 59% 30.35 in 10.0 mi NNE 12.7 mph 21.9 mph N/A   Clear
8:15 AM 35.8 °F 29.4 °F 23.0 °F 60% 30.36 in 10.0 mi North 8.1 mph - N/A   Clear
8:35 AM 36.9 °F 29.1 °F 23.0 °F 57% 30.37 in 10.0 mi NNE 11.5 mph - N/A   Clear
8:55 AM 38.1 °F 29.5 °F 21.7 °F 52% 30.38 in 10.0 mi NNE 15.0 mph 20.7 mph N/A   Clear
9:15 AM 39.6 °F 31.7 °F 21.2 °F 48% 30.39 in 10.0 mi NNE 13.8 mph - N/A   Clear
9:35 AM 40.3 °F 32.2 °F 19.8 °F 44% 30.39 in 10.0 mi NNE 15.0 mph - N/A   Clear
9:55 AM 41.4 °F 32.7 °F 19.2 °F 41% 30.41 in 10.0 mi NNE 18.4 mph 24.2 mph N/A   Clear
10:15 AM 43.7 °F 36.3 °F 19.0 °F 37% 30.41 in 10.0 mi NE 16.1 mph - N/A   Clear
10:35 AM 44.6 °F 37.8 °F 18.3 °F 35% 30.42 in 10.0 mi NE 15.0 mph 19.6 mph N/A   Clear
10:55 AM 45.3 °F 39.0 °F 17.1 °F 32% 30.42 in 10.0 mi NE 13.8 mph 20.7 mph N/A   Clear
11:15 AM 46.8 °F - 15.8 °F 29% 30.42 in 10.0 mi NNE 17.3 mph 21.9 mph N/A   Clear
11:35 AM 47.7 °F - 15.4 °F 28% 30.42 in 10.0 mi NNE 13.8 mph 19.6 mph N/A   Clear
11:55 AM 49.1 °F - 15.8 °F 27% 30.42 in 10.0 mi NE 12.7 mph 18.4 mph N/A   Clear
12:15 PM 49.5 °F - 15.4 °F 26% 30.41 in 10.0 mi NE 10.4 mph 21.9 mph N/A   Clear
12:35 PM 50.2 °F - 15.6 °F 25% 30.41 in 10.0 mi East 9.2 mph 19.6 mph N/A   Clear
12:55 PM 51.4 °F - 16.5 °F 25% 30.40 in 10.0 mi NNE 13.8 mph 20.7 mph N/A   Clear
1:15 PM 51.8 °F - 16.5 °F 25% 30.39 in 10.0 mi NNE 10.4 mph 19.6 mph N/A   Clear
1:35 PM 52.7 °F - 17.1 °F 25% 30.38 in 10.0 mi North 9.2 mph 18.4 mph N/A   Clear
1:55 PM 54.0 °F - 17.4 °F 24% 30.37 in 10.0 mi NE 11.5 mph 18.4 mph N/A   Clear
2:15 PM 54.5 °F - 17.6 °F 23% 30.36 in 10.0 mi NE 10.4 mph 19.6 mph N/A   Clear
2:35 PM 54.9 °F - 17.4 °F 23% 30.35 in 10.0 mi East 11.5 mph 17.3 mph N/A   Clear
2:55 PM 56.3 °F - 18.5 °F 23% 30.35 in 10.0 mi ENE 5.8 mph - N/A   Clear
3:15 PM 55.8 °F - 18.1 °F 23% 30.33 in 10.0 mi NE 8.1 mph 16.1 mph N/A   Clear
3:35 PM 56.1 °F - 18.1 °F 23% 30.33 in 10.0 mi NE 9.2 mph 16.1 mph N/A   Clear
3:55 PM 57.2 °F - 18.3 °F 22% 30.32 in 10.0 mi NNE 6.9 mph - N/A   Clear
4:15 PM 57.4 °F - 18.1 °F 22% 30.32 in 10.0 mi NE 10.4 mph - N/A   Clear
4:35 PM 57.4 °F - 18.1 °F 22% 30.31 in 10.0 mi NE 8.1 mph - N/A   Clear
4:55 PM 58.1 °F - 18.9 °F 22% 30.31 in 10.0 mi NE 8.1 mph - N/A   Clear
5:35 PM 57.9 °F - 18.7 °F 22% 30.30 in 10.0 mi NE 6.9 mph - N/A   Clear
5:55 PM 57.0 °F - 18.9 °F 23% 30.30 in 10.0 mi NNE 8.1 mph - N/A   Clear
6:15 PM 56.7 °F - 19.2 °F 23% 30.30 in 10.0 mi NE 9.2 mph - N/A   Clear
6:35 PM 55.9 °F - 18.9 °F 24% 30.30 in 10.0 mi NE 6.9 mph - N/A   Clear
6:55 PM 54.7 °F - 19.0 °F 25% 30.30 in 10.0 mi NE 5.8 mph - N/A   Clear
7:15 PM 51.4 °F - 21.0 °F 30% 30.30 in 10.0 mi NE 5.8 mph - N/A   Clear
7:35 PM 48.0 °F - 23.0 °F 37% 30.30 in 10.0 mi NE 5.8 mph - N/A   Clear
7:55 PM 46.4 °F 42.9 °F 23.0 °F 40% 30.31 in 10.0 mi NE 6.9 mph - N/A   Clear
8:15 PM 44.8 °F 41.0 °F 23.7 °F 44% 30.31 in 10.0 mi NE 6.9 mph - N/A   Clear
8:35 PM 44.6 °F 40.7 °F 23.5 °F 44% 30.31 in 10.0 mi NE 6.9 mph - N/A   Clear
8:55 PM 43.3 °F 39.2 °F 23.4 °F 45% 30.32 in 10.0 mi NE 6.9 mph - N/A   Clear
9:15 PM 41.9 °F 37.5 °F 23.9 °F 49% 30.32 in 10.0 mi NE 6.9 mph - N/A   Clear
9:35 PM 41.4 °F 39.4 °F 24.3 °F 51% 30.32 in 10.0 mi ENE 3.5 mph - N/A   Clear
9:55 PM 41.4 °F 39.4 °F 23.5 °F 49% 30.33 in 10.0 mi ENE 3.5 mph - N/A   Clear
10:15 PM 41.2 °F 39.2 °F 23.2 °F 49% 30.33 in 10.0 mi ENE 3.5 mph - N/A   Clear
10:35 PM 40.6 °F - 22.6 °F 49% 30.34 in 10.0 mi Calm Calm - N/A   Clear
10:55 PM 40.1 °F - 24.1 °F 53% 30.33 in 10.0 mi Calm Calm - N/A   Clear
11:15 PM 40.3 °F 38.2 °F 23.5 °F 51% 30.33 in 10.0 mi ESE 3.5 mph - N/A   Clear
11:55 PM 40.5 °F 38.4 °F 19.4 °F 43% 30.33 in 10.0 mi ESE 3.5 mph - N/A   Clear